Time;durP1;ratioP1;P1;durP2;ratioP2;P2;SDS_P1;SDS_P2;PMS_P1;PMS_P2;Temp;Humidity;BMP_temperature;BMP_pressure;BME280_temperature;BME280_humidity;BME280_pressure;Samples;Min_cycle;Max_cycle;Signal;HPM_P1;HPM_P2
2022/09/07 00:00:42;;;;;;;12.73;7.03;;;19.20;99.90;;;;;;5074519;28;20051;-63
2022/09/07 00:03:08;;;;;;;16.08;7.13;;;18.90;99.90;;;;;;5074144;28;20500;-63
2022/09/07 00:05:40;;;;;;;12.05;7.20;;;18.90;99.90;;;;;;5074723;28;20052;-64
2022/09/07 00:08:05;;;;;;;15.05;7.70;;;18.80;99.90;;;;;;5074313;28;20094;-63
2022/09/07 00:10:31;;;;;;;17.75;7.72;;;18.90;99.90;;;;;;5074440;28;20041;-63
2022/09/07 00:12:57;;;;;;;15.02;7.57;;;19.00;99.90;;;;;;5074341;28;20457;-64
2022/09/07 00:15:23;;;;;;;11.77;7.35;;;18.70;99.90;;;;;;5074417;28;20127;-63
2022/09/07 00:17:48;;;;;;;16.35;7.90;;;19.00;99.90;;;;;;5073623;28;20044;-63
2022/09/07 00:20:14;;;;;;;17.45;7.70;;;18.20;99.90;;;;;;5074105;28;20111;-64
2022/09/07 00:22:40;;;;;;;17.10;7.97;;;18.60;99.90;;;;;;5073937;28;20036;-64
2022/09/07 00:25:06;;;;;;;12.30;8.30;;;18.90;99.90;;;;;;5074163;28;20078;-63
2022/09/07 00:27:33;;;;;;;18.05;8.40;;;19.00;99.90;;;;;;5073975;28;20041;-57
2022/09/07 00:29:59;;;;;;;12.77;7.13;;;19.40;99.90;;;;;;5073787;28;20040;-57
2022/09/07 00:32:24;;;;;;;12.15;7.55;;;19.10;99.90;;;;;;5074180;28;20094;-57
2022/09/07 00:34:51;;;;;;;15.43;8.07;;;19.10;99.90;;;;;;5074062;28;20075;-57
2022/09/07 00:37:17;;;;;;;11.32;7.50;;;19.10;99.90;;;;;;5074068;28;20037;-57
2022/09/07 00:39:43;;;;;;;21.55;7.32;;;19.10;99.90;;;;;;5073985;28;20457;-57
2022/09/07 00:42:09;;;;;;;14.20;7.00;;;19.30;99.90;;;;;;5073763;28;20042;-57
2022/09/07 00:44:56;;;;;;;14.43;6.95;;;19.00;99.90;;;;;;5073572;28;20119;-57
2022/09/07 00:47:38;;;;;;;18.58;7.10;;;19.50;99.90;;;;;;5073843;28;20115;-57
2022/09/07 00:50:20;;;;;;;12.88;7.22;;;18.80;99.90;;;;;;5073746;28;20407;-57
2022/09/07 00:52:50;;;;;;;16.65;7.82;;;19.10;99.90;;;;;;5073626;28;20044;-57
2022/09/07 00:55:17;;;;;;;15.15;8.15;;;19.40;99.90;;;;;;5073332;28;20541;-57
2022/09/07 00:57:48;;;;;;;13.18;9.50;;;18.90;99.90;;;;;;5073435;28;20124;-56
2022/09/07 01:00:14;;;;;;;17.67;9.95;;;19.40;99.90;;;;;;5073426;28;20549;-56
2022/09/07 01:02:40;;;;;;;15.30;10.40;;;18.40;99.90;;;;;;5073135;28;20617;-56
2022/09/07 01:05:13;;;;;;;18.38;12.13;;;18.90;99.90;;;;;;5073479;28;20124;-55
2022/09/07 01:07:40;;;;;;;19.38;11.73;;;18.50;99.90;;;;;;5073187;28;20040;-54
2022/09/07 01:10:07;;;;;;;23.58;12.90;;;18.60;99.90;;;;;;5073438;28;20072;-54
2022/09/07 01:12:32;;;;;;;18.77;13.32;;;18.60;99.90;;;;;;5071974;28;20547;-55
2022/09/07 01:14:58;;;;;;;20.48;13.23;;;18.40;99.90;;;;;;5073144;28;20111;-55
2022/09/07 01:17:35;;;;;;;18.92;11.90;;;18.10;99.90;;;;;;5073259;28;20495;-55
2022/09/07 01:20:14;;;;;;;18.45;12.85;;;18.40;99.90;;;;;;5073062;28;20040;-56
2022/09/07 01:23:17;;;;;;;31.98;14.90;;;18.40;99.90;;;;;;5072166;28;20056;-56
2022/09/07 01:25:54;;;;;;;20.77;14.77;;;18.50;99.90;;;;;;5073698;28;20045;-56
2022/09/07 01:28:23;;;;;;;24.23;14.10;;;18.20;99.90;;;;;;5072863;28;20082;-56
2022/09/07 01:31:19;;;;;;;21.27;14.68;;;18.00;99.90;;;;;;5072881;28;20060;-56
2022/09/07 01:34:04;;;;;;;;;;;18.10;99.90;;;;;;5073443;28;20040;-56
2022/09/07 01:36:47;;;;;;;20.10;11.60;;;17.60;99.90;;;;;;5073311;28;19916;-56
2022/09/07 01:39:13;;;;;;;14.60;11.00;;;18.00;99.90;;;;;;5073329;28;20075;-56
2022/09/07 01:41:51;;;;;;;12.63;9.52;;;17.30;99.90;;;;;;5072952;28;20136;-57
2022/09/07 01:44:29;;;;;;;13.55;9.15;;;17.60;99.90;;;;;;5073012;28;20531;-56
2022/09/07 01:47:11;;;;;;;15.30;9.40;;;17.70;99.90;;;;;;5072928;28;20040;-56
2022/09/07 01:49:57;;;;;;;13.10;9.02;;;17.70;99.90;;;;;;5071592;28;20048;-56
2022/09/07 01:52:41;;;;;;;11.40;8.32;;;17.10;99.90;;;;;;5073088;28;20048;-56
2022/09/07 01:55:38;;;;;;;12.85;7.90;;;18.60;99.90;;;;;;5072933;28;20052;-56
2022/09/07 01:58:22;;;;;;;11.80;9.27;;;17.70;99.90;;;;;;5058512;28;20446;-56
2022/09/07 02:00:54;;;;;;;14.30;9.82;;;17.50;99.90;;;;;;5072775;28;20083;-63
2022/09/07 02:03:29;;;;;;;10.95;9.05;;;17.70;99.90;;;;;;5072984;28;20056;-63
2022/09/07 02:06:03;;;;;;;11.85;9.32;;;18.10;99.90;;;;;;5072692;28;20089;-64
2022/09/07 02:08:38;;;;;;;11.75;9.43;;;17.80;99.90;;;;;;5072690;28;20086;-63
2022/09/07 02:11:10;;;;;;;14.55;9.70;;;17.70;99.90;;;;;;5073119;28;20049;-64
2022/09/07 02:13:46;;;;;;;14.65;10.32;;;17.70;99.90;;;;;;5072756;28;20081;-64
2022/09/07 02:16:26;;;;;;;13.63;9.52;;;17.60;99.90;;;;;;5073069;28;20048;-64
2022/09/07 02:19:03;;;;;;;14.00;10.77;;;18.00;99.90;;;;;;5072548;28;20484;-64
2022/09/07 02:21:40;;;;;;;15.00;11.18;;;17.60;99.90;;;;;;5072849;28;20138;-64
2022/09/07 02:24:15;;;;;;;13.80;11.05;;;17.80;99.90;;;;;;5072685;28;20043;-63
2022/09/07 02:26:46;;;;;;;15.93;12.05;;;17.30;99.90;;;;;;5072876;28;20048;-63
2022/09/07 02:29:12;;;;;;;15.55;11.73;;;17.60;99.90;;;;;;5072438;28;20124;-63
2022/09/07 02:31:38;;;;;;;15.77;11.55;;;17.70;99.90;;;;;;5072815;28;20117;-64
2022/09/07 02:34:04;;;;;;;18.85;14.02;;;17.40;99.90;;;;;;5072652;28;20493;-64
2022/09/07 02:36:37;;;;;;;15.95;12.68;;;17.70;99.90;;;;;;5072617;28;20064;-64
2022/09/07 02:39:02;;;;;;;15.88;12.90;;;17.50;99.90;;;;;;5072492;28;20109;-64
2022/09/07 02:41:33;;;;;;;17.92;14.43;;;17.70;99.90;;;;;;5074789;28;20032;-64
2022/09/07 02:44:00;;;;;;;17.00;13.45;;;17.40;99.90;;;;;;5074714;28;20045;-64
2022/09/07 02:46:45;;;;;;;20.88;14.95;;;17.60;99.90;;;;;;5075906;28;20044;-65
2022/09/07 02:49:36;;;;;;;18.23;14.57;;;17.60;99.90;;;;;;5075852;28;20471;-64
2022/09/07 02:52:21;;;;;;;18.40;14.30;;;17.40;99.90;;;;;;5075853;28;20503;-64
2022/09/07 02:55:29;;;;;;;19.20;13.77;;;17.80;99.90;;;;;;5076219;28;20485;-63
2022/09/07 02:58:13;;;;;;;16.45;12.60;;;17.40;99.90;;;;;;5075904;28;20043;-64
2022/09/07 03:01:28;;;;;;;21.40;13.45;;;17.40;99.90;;;;;;5075764;28;20041;-63
2022/09/07 03:03:59;;;;;;;16.58;10.93;;;17.40;99.90;;;;;;5030369;28;20509;-64
2022/09/07 03:06:37;;;;;;;14.23;10.52;;;17.20;99.90;;;;;;5033496;28;20413;-57
2022/09/07 03:09:11;;;;;;;14.77;9.95;;;17.70;99.90;;;;;;5033556;28;20053;-57
2022/09/07 03:11:37;;;;;;;12.65;10.00;;;;;;;;;;5033483;28;20068;-57
2022/09/07 03:14:20;;;;;;;13.63;10.07;;;17.90;99.90;;;;;;5033408;28;20163;-57
2022/09/07 03:16:52;;;;;;;17.13;10.85;;;17.10;99.90;;;;;;5033181;28;20037;-57
2022/09/07 03:19:18;;;;;;;15.30;11.57;;;17.30;99.90;;;;;;5032240;28;20079;-63
2022/09/07 03:21:43;;;;;;;15.73;12.20;;;17.50;99.90;;;;;;5033314;28;20443;-63
2022/09/07 03:24:09;;;;;;;16.08;12.63;;;17.30;99.90;;;;;;5033171;28;20508;-63
2022/09/07 03:26:44;;;;;;;18.17;12.68;;;17.40;99.90;;;;;;5033213;28;20128;-63
2022/09/07 03:29:10;;;;;;;20.80;13.35;;;17.40;99.90;;;;;;5032962;28;20056;-63
2022/09/07 03:31:36;;;;;;;19.30;13.35;;;;;;;;;;5016618;28;20042;-63
2022/09/07 03:34:03;;;;;;;18.73;13.82;;;17.40;99.90;;;;;;5033064;28;20046;-63
2022/09/07 03:36:32;;;;;;;17.55;13.75;;;17.30;99.90;;;;;;5033028;28;20039;-57
2022/09/07 03:38:58;;;;;;;20.60;14.50;;;17.30;99.90;;;;;;5033006;28;20447;-57
2022/09/07 03:41:26;;;;;;;22.00;15.82;;;17.30;99.90;;;;;;5070584;28;20049;-57
2022/09/07 03:43:52;;;;;;;18.83;15.98;;;17.30;99.90;;;;;;5074792;28;20492;-57
2022/09/07 03:46:18;;;;;;;21.13;17.80;;;17.30;99.90;;;;;;5075096;28;20050;-57
2022/09/07 03:48:46;;;;;;;24.65;18.35;;;17.40;99.90;;;;;;5074805;28;20047;-57
2022/09/07 03:51:13;;;;;;;26.40;18.35;;;18.50;99.90;;;;;;5074591;28;20578;-57
2022/09/07 03:53:42;;;;;;;23.38;17.75;;;17.40;99.90;;;;;;5074116;28;20338;-57
2022/09/07 03:56:14;;;;;;;22.60;18.60;;;17.30;99.90;;;;;;5074692;28;20033;-57
2022/09/07 03:58:41;;;;;;;21.58;18.27;;;17.50;99.90;;;;;;5074929;28;20396;-57
2022/09/07 04:01:10;;;;;;;24.25;19.45;;;16.90;99.90;;;;;;5074502;28;20036;-57
2022/09/07 04:03:37;;;;;;;26.77;20.63;;;17.20;99.90;;;;;;5074257;28;20056;-57
2022/09/07 04:06:03;;;;;;;27.25;20.67;;;17.70;99.90;;;;;;5074768;28;20199;-57
2022/09/07 04:08:31;;;;;;;25.08;20.13;;;16.80;99.90;;;;;;5074340;28;20032;-57
2022/09/07 04:10:58;;;;;;;25.83;19.88;;;17.60;99.90;;;;;;5074197;28;20119;-57
2022/09/07 04:13:25;;;;;;;22.55;18.65;;;17.50;99.90;;;;;;5074310;28;20547;-57
2022/09/07 04:15:51;;;;;;;23.75;18.65;;;18.00;99.90;;;;;;5074273;28;20045;-57
2022/09/07 04:18:18;;;;;;;25.15;19.13;;;17.40;99.90;;;;;;5074219;28;20085;-57
2022/09/07 04:20:43;;;;;;;27.52;18.83;;;17.30;99.90;;;;;;5074444;28;20068;-57
2022/09/07 04:23:09;;;;;;;24.25;18.75;;;17.40;99.90;;;;;;5074139;28;20044;-57
2022/09/07 04:25:35;;;;;;;23.35;19.23;;;17.30;99.90;;;;;;5073927;28;20130;-58
2022/09/07 04:28:01;;;;;;;26.00;19.60;;;17.50;99.90;;;;;;5073664;28;20032;-57
2022/09/07 04:30:27;;;;;;;25.58;20.55;;;17.00;99.90;;;;;;5073416;28;20036;-57
2022/09/07 04:32:53;;;;;;;23.77;19.45;;;17.60;99.90;;;;;;5074193;28;20395;-57
2022/09/07 04:35:18;;;;;;;28.05;21.52;;;17.30;99.90;;;;;;5073945;28;20541;-58
2022/09/07 04:37:44;;;;;;;32.30;21.95;;;17.20;99.90;;;;;;5073576;28;20048;-57
2022/09/07 04:40:11;;;;;;;30.45;23.10;;;17.30;99.90;;;;;;5074033;28;20084;-57
2022/09/07 04:42:37;;;;;;;29.38;22.48;;;17.00;99.90;;;;;;5068489;28;20496;-57
2022/09/07 04:45:03;;;;;;;32.88;24.33;;;17.00;99.90;;;;;;5059338;28;20044;-57
2022/09/07 04:47:29;;;;;;;33.20;24.25;;;;;;;;;;5070686;28;20123;-57
2022/09/07 04:49:56;;;;;;;32.33;25.27;;;17.00;99.90;;;;;;5070461;28;20407;-57
2022/09/07 04:52:22;;;;;;;27.48;22.75;;;17.10;99.90;;;;;;5070672;28;20036;-58
2022/09/07 04:54:49;;;;;;;31.83;25.25;;;17.00;99.90;;;;;;5070546;28;20482;-63
2022/09/07 04:57:17;;;;;;;39.17;29.13;;;17.10;99.90;;;;;;5072178;28;20064;-63
2022/09/07 04:59:43;;;;;;;38.83;29.45;;;;;;;;;;5072555;28;20138;-63
2022/09/07 05:02:08;;;;;;;53.83;37.08;;;17.30;99.90;;;;;;5073126;28;20060;-62
2022/09/07 05:04:35;;;;;;;60.65;40.08;;;17.10;99.90;;;;;;5072892;28;20045;-63
2022/09/07 05:07:00;;;;;;;79.15;48.47;;;17.00;99.90;;;;;;5073580;28;20084;-63
2022/09/07 05:09:26;;;;;;;84.30;50.75;;;17.40;99.90;;;;;;5073046;28;20076;-63
2022/09/07 05:11:53;;;;;;;78.55;47.65;;;;;;;;;;5073490;28;20032;-63
2022/09/07 05:14:19;;;;;;;78.30;46.20;;;17.00;99.90;;;;;;5073320;28;20438;-63
2022/09/07 05:16:45;;;;;;;76.57;47.15;;;17.00;99.90;;;;;;5071862;28;20036;-63
2022/09/07 05:19:12;;;;;;;76.32;47.33;;;18.00;99.90;;;;;;5069680;28;20041;-63
2022/09/07 05:21:38;;;;;;;81.90;49.25;;;17.40;99.90;;;;;;5072224;28;20116;-63
2022/09/07 05:24:04;;;;;;;79.72;48.83;;;16.80;99.90;;;;;;5072321;28;20052;-63
2022/09/07 05:26:32;;;;;;;70.65;45.30;;;17.50;99.90;;;;;;5070141;28;20089;-63
2022/09/07 05:29:02;;;;;;;60.60;39.08;;;17.10;99.90;;;;;;5071580;28;20048;-63
2022/09/07 05:31:29;;;;;;;49.72;32.83;;;16.70;99.90;;;;;;5071920;28;20077;-63
2022/09/07 05:33:59;;;;;;;41.78;28.65;;;17.30;99.90;;;;;;5071645;28;20047;-63
2022/09/07 05:36:25;;;;;;;36.10;28.15;;;17.30;99.90;;;;;;5071484;28;20040;-63
2022/09/07 05:38:58;;;;;;;33.97;25.92;;;17.60;99.90;;;;;;5071750;28;20474;-63
2022/09/07 05:41:25;;;;;;;37.30;27.17;;;17.40;99.90;;;;;;5071851;28;20570;-63
2022/09/07 05:43:51;;;;;;;32.85;25.27;;;17.30;99.90;;;;;;5071315;28;20040;-64
2022/09/07 05:46:18;;;;;;;31.60;25.55;;;17.40;99.90;;;;;;5071625;28;20058;-64
2022/09/07 05:48:44;;;;;;;31.65;22.85;;;;;;;;;;5069917;28;20047;-63
2022/09/07 05:51:12;;;;;;;28.58;21.95;;;17.70;99.90;;;;;;5071850;28;20036;-63
2022/09/07 05:53:40;;;;;;;26.88;22.17;;;17.30;99.90;;;;;;5071202;28;20028;-63
2022/09/07 05:56:06;;;;;;;29.60;20.33;;;17.70;99.90;;;;;;5052626;28;20043;-63
2022/09/07 05:58:33;;;;;;;24.13;20.25;;;17.90;99.90;;;;;;5059286;28;20079;-63
2022/09/07 06:01:01;;;;;;;24.38;20.52;;;18.20;99.90;;;;;;5071413;28;20028;-63
2022/09/07 06:03:27;;;;;;;22.80;18.77;;;19.40;99.90;;;;;;5071120;28;20084;-63
2022/09/07 06:06:13;;;;;;;24.75;17.60;;;18.80;99.90;;;;;;5071792;28;20040;-63
2022/09/07 06:08:44;;;;;;;22.80;18.02;;;19.30;99.90;;;;;;5071817;28;20071;-63
2022/09/07 06:11:12;;;;;;;22.13;15.85;;;19.60;99.90;;;;;;5071341;28;20492;-63
2022/09/07 06:13:38;;;;;;;22.95;17.13;;;20.10;99.90;;;;;;5071721;28;20456;-63
2022/09/07 06:16:06;;;;;;;23.25;16.45;;;20.10;99.90;;;;;;5073732;28;20039;-63
2022/09/07 06:18:37;;;;;;;22.55;16.05;;;20.30;99.90;;;;;;5075399;28;20479;-63
2022/09/07 06:21:04;;;;;;;18.45;15.70;;;20.00;99.90;;;;;;5072039;28;20097;-63
2022/09/07 06:23:33;;;;;;;20.98;15.35;;;20.10;99.90;;;;;;5075219;28;20037;-63
2022/09/07 06:26:00;;;;;;;17.63;14.95;;;20.00;99.90;;;;;;5073816;28;20040;-63
2022/09/07 06:28:30;;;;;;;19.45;14.68;;;20.30;99.90;;;;;;5073826;28;20041;-63
2022/09/07 06:31:00;;;;;;;23.60;14.82;;;20.40;99.90;;;;;;5075159;28;20029;-63
2022/09/07 06:33:27;;;;;;;20.38;14.75;;;20.50;99.90;;;;;;5072761;28;20111;-63
2022/09/07 06:36:02;;;;;;;18.00;15.40;;;20.30;99.90;;;;;;5075036;28;20037;-63
2022/09/07 06:38:29;;;;;;;18.45;14.15;;;20.40;99.90;;;;;;5074730;28;20094;-63
2022/09/07 06:41:00;;;;;;;19.40;14.30;;;19.80;99.90;;;;;;5074895;28;20039;-64
2022/09/07 06:43:26;;;;;;;17.45;14.15;;;19.70;99.90;;;;;;5074970;28;20434;-63
2022/09/07 06:45:53;;;;;;;16.77;14.48;;;19.70;99.90;;;;;;5073554;28;20032;-63
2022/09/07 06:48:19;;;;;;;18.13;14.07;;;19.10;99.90;;;;;;5074864;28;20052;-57
2022/09/07 06:50:57;;;;;;;18.52;14.77;;;19.20;99.90;;;;;;5074685;28;20040;-57
2022/09/07 06:53:24;;;;;;;20.00;16.10;;;18.90;99.90;;;;;;5072713;28;20140;-57
2022/09/07 06:55:50;;;;;;;20.77;16.23;;;18.60;99.90;;;;;;5074788;28;20037;-57
2022/09/07 06:58:15;;;;;;;19.90;15.70;;;18.70;99.90;;;;;;5074407;28;20495;-57
2022/09/07 07:00:41;;;;;;;23.75;16.25;;;18.40;99.90;;;;;;5074477;28;20123;-57
2022/09/07 07:03:07;;;;;;;19.65;16.50;;;18.70;99.90;;;;;;5073044;28;20045;-57
2022/09/07 07:05:32;;;;;;;23.90;16.25;;;18.40;99.90;;;;;;5074269;28;20040;-57
2022/09/07 07:07:58;;;;;;;19.08;16.42;;;18.50;99.90;;;;;;5074810;28;20044;-57
2022/09/07 07:10:24;;;;;;;21.90;16.85;;;18.20;99.90;;;;;;5074131;28;20115;-57
2022/09/07 07:12:51;;;;;;;21.38;16.30;;;18.80;99.90;;;;;;5073914;28;20020;-57
2022/09/07 07:15:17;;;;;;;32.53;16.70;;;18.10;99.90;;;;;;5075293;28;20036;-57
2022/09/07 07:17:43;;;;;;;23.17;16.63;;;18.00;99.90;;;;;;5075367;28;20044;-57
2022/09/07 07:20:09;;;;;;;23.52;16.67;;;18.40;99.90;;;;;;5073743;28;20181;-57
2022/09/07 07:22:34;;;;;;;21.95;15.60;;;18.60;99.90;;;;;;5074190;28;20028;-57
2022/09/07 07:25:00;;;;;;;25.55;17.52;;;18.80;99.90;;;;;;5074169;28;20044;-57
2022/09/07 07:27:28;;;;;;;27.67;17.98;;;18.70;99.90;;;;;;5072956;28;20033;-57
2022/09/07 07:29:54;;;;;;;25.17;18.23;;;18.70;99.90;;;;;;5073926;28;20060;-57
2022/09/07 07:32:20;;;;;;;21.13;17.42;;;18.40;99.90;;;;;;5073963;28;20032;-57
2022/09/07 07:34:45;;;;;;;23.88;18.17;;;19.00;99.90;;;;;;5073889;28;20037;-57
2022/09/07 07:37:11;;;;;;;24.73;17.85;;;18.70;99.90;;;;;;5073613;28;20040;-57
2022/09/07 07:39:37;;;;;;;27.45;18.67;;;18.90;99.90;;;;;;5074049;28;20036;-57
2022/09/07 07:42:02;;;;;;;22.85;17.80;;;18.50;99.90;;;;;;5073513;28;20047;-57
2022/09/07 07:44:28;;;;;;;23.83;19.13;;;18.20;99.90;;;;;;5073683;28;20040;-57
2022/09/07 07:46:57;;;;;;;25.50;19.02;;;19.20;99.90;;;;;;5073686;28;20032;-57
2022/09/07 07:49:23;;;;;;;28.25;20.90;;;18.60;99.90;;;;;;5073954;28;20044;-57
2022/09/07 07:51:49;;;;;;;27.98;21.25;;;;;;;;;;5073359;28;20035;-57
2022/09/07 07:54:15;;;;;;;30.50;22.08;;;18.60;99.90;;;;;;5073673;28;20071;-57
2022/09/07 07:56:40;;;;;;;30.58;23.00;;;18.30;99.90;;;;;;5073840;28;20076;-57
2022/09/07 07:59:06;;;;;;;31.40;22.98;;;18.60;99.90;;;;;;5073428;28;20120;-57
2022/09/07 08:01:35;;;;;;;30.90;22.70;;;18.60;99.90;;;;;;5074730;28;20124;-57
2022/09/07 08:04:01;;;;;;;31.88;24.58;;;17.80;99.90;;;;;;5074261;28;20084;-57
2022/09/07 08:06:27;;;;;;;32.75;23.80;;;18.60;99.90;;;;;;5074540;28;20508;-57
2022/09/07 08:08:54;;;;;;;30.92;24.40;;;18.90;99.90;;;;;;5074204;28;20496;-57
2022/09/07 08:11:20;;;;;;;34.85;24.38;;;19.00;99.90;;;;;;5073786;28;20041;-57
2022/09/07 08:13:51;;;;;;;30.67;23.77;;;18.70;99.90;;;;;;5074225;28;20048;-57
2022/09/07 08:16:17;;;;;;;29.40;23.23;;;18.80;99.90;;;;;;5070853;28;20127;-57
2022/09/07 08:18:44;;;;;;;31.23;23.48;;;18.90;99.90;;;;;;5070470;28;20147;-56
2022/09/07 08:21:12;;;;;;;31.58;23.83;;;19.30;99.90;;;;;;5064670;28;20136;-56
2022/09/07 08:23:38;;;;;;;31.70;23.80;;;19.40;99.90;;;;;;5068800;28;20075;-57
2022/09/07 08:26:05;;;;;;;28.10;22.73;;;19.60;99.90;;;;;;5065401;28;20040;-57
2022/09/07 08:28:34;;;;;;;33.88;23.50;;;19.40;99.90;;;;;;5064303;28;20048;-56
2022/09/07 08:31:06;;;;;;;29.10;22.42;;;19.70;99.90;;;;;;5063517;28;20083;-56
2022/09/07 08:33:34;;;;;;;29.77;23.05;;;19.60;99.90;;;;;;5067250;28;20412;-56
2022/09/07 08:36:02;;;;;;;30.40;23.00;;;19.60;99.90;;;;;;5064028;28;20400;-56
2022/09/07 08:38:29;;;;;;;29.92;22.40;;;20.00;99.90;;;;;;5067067;28;20122;-56
2022/09/07 08:40:56;;;;;;;27.80;21.88;;;19.80;99.90;;;;;;5062572;28;20072;-56
2022/09/07 08:43:43;;;;;;;26.52;21.63;;;19.70;99.90;;;;;;5062354;28;20043;-56
2022/09/07 08:46:31;;;;;;;29.85;21.15;;;19.90;99.90;;;;;;5063240;28;20043;-56
2022/09/07 08:48:58;;;;;;;26.63;21.25;;;18.90;99.90;;;;;;5062465;28;20112;-56
2022/09/07 08:51:37;;;;;;;26.80;21.58;;;20.00;99.90;;;;;;5064152;28;20033;-57
2022/09/07 08:54:04;;;;;;;28.83;21.20;;;20.20;99.90;;;;;;5062527;28;20049;-64
2022/09/07 08:56:35;;;;;;;29.00;21.65;;;20.10;99.90;;;;;;5064736;28;20033;-64
2022/09/07 08:59:14;;;;;;;27.40;21.20;;;20.40;99.90;;;;;;5069217;28;20091;-64
2022/09/07 09:01:42;;;;;;;26.85;20.38;;;20.10;99.90;;;;;;5068888;28;20037;-63
2022/09/07 09:04:22;;;;;;;26.20;19.33;;;20.10;99.90;;;;;;5066840;28;20094;-64
2022/09/07 09:07:12;;;;;;;23.33;18.90;;;20.30;99.90;;;;;;5063752;28;20079;-64
2022/09/07 09:10:15;;;;;;;26.05;19.15;;;20.30;99.90;;;;;;5068329;28;20082;-64
2022/09/07 09:13:00;;;;;;;22.60;17.98;;;20.40;99.90;;;;;;5061564;28;20032;-64
2022/09/07 09:16:00;;;;;;;21.67;17.45;;;20.60;99.90;;;;;;5062286;28;20033;-64
2022/09/07 09:18:33;;;;;;;23.20;18.00;;;20.70;99.90;;;;;;5057818;28;20093;-64
2022/09/07 09:21:00;;;;;;;22.75;17.58;;;20.40;99.90;;;;;;5063719;28;20040;-64
2022/09/07 09:23:30;;;;;;;23.05;18.20;;;20.40;99.90;;;;;;5062556;28;20503;-64
2022/09/07 09:26:00;;;;;;;23.75;18.33;;;20.40;99.90;;;;;;5064930;28;20032;-64
2022/09/07 09:28:25;;;;;;;21.63;17.38;;;20.30;99.90;;;;;;5064712;28;20041;-64
2022/09/07 09:30:51;;;;;;;21.88;17.50;;;20.30;99.90;;;;;;5062711;28;20029;-64
2022/09/07 09:33:26;;;;;;;21.63;17.50;;;20.30;99.90;;;;;;5062480;28;20131;-64
2022/09/07 09:35:59;;;;;;;21.50;16.70;;;20.20;99.90;;;;;;5064566;28;20036;-64
2022/09/07 09:38:28;;;;;;;20.48;16.42;;;21.10;99.90;;;;;;5069082;28;20587;-65
2022/09/07 09:40:55;;;;;;;22.40;16.48;;;20.20;99.90;;;;;;5063718;28;20071;-64
2022/09/07 09:43:24;;;;;;;21.55;16.65;;;20.50;99.90;;;;;;5070021;28;20041;-64
2022/09/07 09:45:53;;;;;;;22.02;16.65;;;20.60;99.90;;;;;;5064530;28;20051;-64
2022/09/07 09:48:30;;;;;;;18.98;16.38;;;20.50;99.90;;;;;;5063412;28;20104;-64
2022/09/07 09:50:57;;;;;;;20.85;16.88;;;20.80;99.90;;;;;;5066912;28;20082;-64
2022/09/07 09:53:28;;;;;;;19.73;16.52;;;20.80;99.90;;;;;;5076080;28;20318;-64
2022/09/07 09:55:55;;;;;;;24.10;16.90;;;20.80;99.90;;;;;;5070701;28;20037;-64
2022/09/07 09:58:32;;;;;;;20.02;15.27;;;20.80;99.90;;;;;;5070358;28;20044;-65
2022/09/07 10:01:03;;;;;;;21.33;16.42;;;21.00;99.90;;;;;;5062617;28;20049;-64
2022/09/07 10:03:31;;;;;;;20.42;14.98;;;20.90;99.90;;;;;;5068881;28;20347;-64
2022/09/07 10:05:58;;;;;;;19.27;15.13;;;20.50;99.90;;;;;;5068287;28;20033;-64
2022/09/07 10:08:27;;;;;;;20.60;15.15;;;20.70;99.90;;;;;;5073596;28;20507;-64
2022/09/07 10:11:02;;;;;;;22.05;15.30;;;20.80;99.90;;;;;;5068784;28;20032;-64
2022/09/07 10:13:56;;;;;;;20.92;14.77;;;21.90;99.90;;;;;;5067354;28;20028;-64
2022/09/07 10:16:40;;;;;;;17.05;12.32;;;21.20;99.90;;;;;;5069011;28;20044;-64
2022/09/07 10:19:29;;;;;;;16.67;12.23;;;21.00;99.90;;;;;;5079858;28;20079;-64
2022/09/07 10:22:17;;;;;;;17.17;11.82;;;21.10;99.90;;;;;;5076242;28;20048;-64
2022/09/07 10:24:43;;;;;;;13.68;12.05;;;21.30;99.90;;;;;;5064520;28;20124;-64
2022/09/07 10:27:27;;;;;;;18.48;12.70;;;22.20;99.90;;;;;;5067141;28;20043;-64
2022/09/07 10:29:54;;;;;;;14.77;11.80;;;21.60;99.90;;;;;;5067819;28;20048;-65
2022/09/07 10:32:22;;;;;;;16.60;13.70;;;21.70;99.90;;;;;;5072817;28;20039;-64
2022/09/07 10:35:13;;;;;;;13.55;11.98;;;21.70;99.90;;;;;;5067283;28;20036;-65
2022/09/07 10:37:39;;;;;;;16.38;12.45;;;21.80;99.90;;;;;;5066904;28;20114;-64
2022/09/07 10:40:30;;;;;;;12.73;10.43;;;21.90;99.90;;;;;;5069468;28;20083;-65
2022/09/07 10:43:48;;;;;;;16.90;11.98;;;22.10;99.90;;;;;;5064700;28;20047;-64
2022/09/07 10:46:20;;;;;;;15.73;10.35;;;21.40;99.90;;;;;;5036874;28;20082;-64
2022/09/07 10:49:15;;;;;;;15.15;10.15;;;22.20;99.90;;;;;;5053920;28;20084;-64
2022/09/07 10:52:13;;;;;;;13.27;9.68;;;22.90;99.90;;;;;;5054239;28;20551;-64
2022/09/07 10:55:14;;;;;;;11.75;9.15;;;22.30;99.90;;;;;;5054611;28;20125;-64
2022/09/07 10:57:54;;;;;;;11.63;9.50;;;22.30;99.90;;;;;;5053991;28;20520;-64
2022/09/07 11:00:21;;;;;;;11.88;9.73;;;22.40;99.90;;;;;;5052640;28;20036;-63
2022/09/07 11:03:11;;;;;;;14.57;9.20;;;22.40;99.90;;;;;;5052535;28;20525;-64
2022/09/07 11:06:00;;;;;;;15.10;9.80;;;22.50;99.90;;;;;;5051687;28;20044;-63
2022/09/07 11:08:53;;;;;;;13.55;9.85;;;22.50;99.90;;;;;;5059417;28;20045;-64
2022/09/07 11:11:31;;;;;;;13.43;9.98;;;23.10;99.90;;;;;;5051688;28;20041;-64
2022/09/07 11:14:07;;;;;;;13.48;9.88;;;22.10;99.90;;;;;;5051671;28;20570;-63
2022/09/07 11:16:37;;;;;;;12.45;9.25;;;22.90;99.90;;;;;;5064226;28;20051;-64
2022/09/07 11:19:10;;;;;;;12.55;9.25;;;23.40;99.90;;;;;;5074105;28;20565;-63
2022/09/07 11:21:41;;;;;;;12.98;9.50;;;23.10;99.90;;;;;;5070288;28;20076;-64
2022/09/07 11:24:27;;;;;;;11.32;8.63;;;23.40;99.90;;;;;;5067632;28;20059;-64
2022/09/07 11:26:59;;;;;;;11.90;8.70;;;23.50;99.90;;;;;;5066949;28;20045;-65
2022/09/07 11:29:35;;;;;;;10.85;8.75;;;23.60;99.90;;;;;;5068731;28;20374;-65
2022/09/07 11:32:23;;;;;;;12.50;9.15;;;23.70;99.90;;;;;;5061667;28;20035;-64
2022/09/07 11:34:57;;;;;;;10.52;9.43;;;23.40;99.90;;;;;;5063645;28;20033;-64
2022/09/07 11:37:38;;;;;;;9.75;8.55;;;23.90;99.90;;;;;;5067352;28;20036;-64
2022/09/07 11:40:20;;;;;;;10.90;9.20;;;23.80;99.90;;;;;;5066869;28;20614;-64
2022/09/07 11:42:58;;;;;;;12.18;9.88;;;23.80;99.90;;;;;;5064718;28;20068;-64
2022/09/07 11:45:59;;;;;;;9.35;8.02;;;23.80;99.90;;;;;;5063261;28;20051;-64
2022/09/07 11:48:33;;;;;;;12.15;8.10;;;23.90;99.90;;;;;;5051610;28;20109;-64
2022/09/07 11:51:17;;;;;;;10.65;9.07;;;24.20;99.90;;;;;;5074914;28;20036;-65
2022/09/07 11:53:48;;;;;;;9.75;8.35;;;24.40;99.90;;;;;;5072860;28;20032;-65
2022/09/07 11:56:39;;;;;;;9.85;8.63;;;24.30;99.90;;;;;;5061935;28;20044;-65
2022/09/07 11:59:16;;;;;;;9.50;8.50;;;24.70;99.90;;;;;;5062992;28;20051;-65
2022/09/07 12:02:03;;;;;;;9.02;7.13;;;24.80;99.90;;;;;;5065374;28;20033;-65
2022/09/07 12:04:31;;;;;;;8.65;6.78;;;24.80;99.90;;;;;;5061802;28;20037;-65
2022/09/07 12:07:23;;;;;;;7.95;6.93;;;25.10;99.90;;;;;;5073594;28;20535;-66
2022/09/07 12:10:01;;;;;;;8.93;6.90;;;24.90;99.90;;;;;;5074331;28;20507;-65
2022/09/07 12:12:51;;;;;;;7.55;6.45;;;25.10;99.90;;;;;;5065008;28;20116;-65
2022/09/07 12:15:35;;;;;;;8.38;5.80;;;25.90;99.90;;;;;;5062883;28;20068;-65
2022/09/07 12:18:15;;;;;;;7.68;5.72;;;25.40;99.90;;;;;;5065606;28;20536;-65
2022/09/07 12:20:46;;;;;;;7.25;5.95;;;25.20;99.90;;;;;;5067049;28;20060;-65
2022/09/07 12:23:14;;;;;;;6.47;5.72;;;25.30;99.90;;;;;;5070679;28;20040;-65
2022/09/07 12:25:41;;;;;;;7.95;5.43;;;25.40;99.90;;;;;;5054403;28;20040;-65
2022/09/07 12:28:33;;;;;;;6.88;5.80;;;25.60;99.90;;;;;;5061432;28;20350;-65
2022/09/07 12:31:04;;;;;;;8.20;5.20;;;25.80;99.90;;;;;;5015204;28;20426;-66
2022/09/07 12:33:31;;;;;;;6.18;5.28;;;25.90;99.90;;;;;;5031961;28;20103;-66
2022/09/07 12:35:59;;;;;;;6.93;5.50;;;25.90;99.90;;;;;;5031404;28;20144;-66
2022/09/07 12:38:50;;;;;;;7.50;5.70;;;25.90;99.90;;;;;;5031480;28;20037;-66
2022/09/07 12:41:23;;;;;;;6.60;5.30;;;25.50;99.90;;;;;;5029026;28;20053;-66
2022/09/07 12:43:49;;;;;;;8.80;4.78;;;26.10;99.90;;;;;;5030813;28;20090;-66
2022/09/07 12:46:39;;;;;;;6.75;5.18;;;26.20;99.90;;;;;;5031134;28;20041;-67
2022/09/07 12:49:36;;;;;;;7.90;4.05;;;26.30;99.90;;;;;;5030147;28;20042;-67
2022/09/07 12:52:33;;;;;;;6.70;4.20;;;26.50;99.90;;;;;;5028737;28;20040;-67
2022/09/07 12:55:04;;;;;;;6.65;4.47;;;26.60;99.90;;;;;;5013887;28;20053;-67
2022/09/07 12:58:08;;;;;;;6.07;3.80;;;26.20;99.90;;;;;;5031064;28;20128;-67
2022/09/07 13:01:00;;;;;;;4.40;3.63;;;26.80;99.90;;;;;;5029529;28;20199;-66